PWSweather.com
Personal Weather Stations
Station Observations
APRSFL1
Magnolia Valley, New Port Richey, FL 34653

Magnolia ValleyNew Port Richey, FL 34653

Lat: 28.26, Lon: -82.688

Elevation: 19

Station Type: Davis Vantage Pro 2 Plus with 70ft high Webcam

http://www.aprsfl.net/weather

Latest ConditionsUpdated 1:45:07 AM EDT Tuesday, Jul 28, 2015
Currently Today's Max Today's Min Today's Average
Temperature 76.8°F24.9°C 77.0°F25.0°C 76.5°F24.7°C 76.8°F24.9°C
Dew Point 76.2°F24.6°C 76.2°F24.6°C 75.8°F24.3°C 76.0°F24.4°C
Winds Calm Calm Calm SECalm SE - Calm Calm
Wind Gusts -- 1.0 mph1.6 kmh - -
Humidity 98% 98% 97% 98%
Pressure 29.95 in1014.2 mb 29.96 in1014.6 mb 29.95 in1014.2 mb -
Hour Temp Dew Point Humidity Winds Wind Gusts Pressure Precip Precip Rate Daily Precip Total
01:45 AM 76.8°F24.9°C 76.2°F24.6°C 98% Calm Calm -- 29.95 in1014.2 mb 0.01 in0.3 mm 0.00 in0.0 mm 0.04 in1.0 mm
01:40 AM 76.8°F24.9°C 76.2°F24.6°C 98% Calm Calm -- 29.95 in1014.2 mb 0.01 in0.3 mm 0.00 in0.0 mm 0.04 in1.0 mm
01:35 AM 76.8°F24.9°C 76.2°F24.6°C 98% Calm Calm -- 29.95 in1014.2 mb 0.01 in0.3 mm 0.00 in0.0 mm 0.04 in1.0 mm
01:30 AM 76.6°F24.8°C 76.0°F24.4°C 98% Calm Calm -- 29.95 in1014.2 mb 0.01 in0.3 mm 0.00 in0.0 mm 0.04 in1.0 mm
01:25 AM 76.7°F24.8°C 76.1°F24.5°C 98% Calm Calm -- 29.95 in1014.2 mb 0.02 in0.5 mm 0.00 in0.0 mm 0.04 in1.0 mm
01:20 AM 76.7°F24.8°C 76.1°F24.5°C 98% Calm Calm -- 29.95 in1014.2 mb 0.02 in0.5 mm 0.00 in0.0 mm 0.04 in1.0 mm
01:15 AM 76.6°F24.8°C 76.0°F24.4°C 98% Calm Calm -- 29.96 in1014.6 mb 0.02 in0.5 mm 0.12 in3.0 mm 0.04 in1.0 mm
01:10 AM 76.6°F24.8°C 76.0°F24.4°C 98% Calm Calm -- 29.95 in1014.2 mb 0.01 in0.3 mm 0.00 in0.0 mm 0.03 in0.8 mm
01:05 AM 76.5°F24.7°C 75.9°F24.4°C 98% Calm Calm 1.0 mph1.6 kmh 29.95 in1014.2 mb 0.01 in0.3 mm 0.00 in0.0 mm 0.03 in0.8 mm
01:00 AM 76.6°F24.8°C 76.0°F24.4°C 98% Calm Calm -- 29.95 in1014.2 mb 0.01 in0.3 mm 0.00 in0.0 mm 0.03 in0.8 mm
12:55 AM 76.6°F24.8°C 76.0°F24.4°C 98% Calm Calm -- 29.95 in1014.2 mb 0.02 in0.5 mm 0.00 in0.0 mm 0.03 in0.8 mm
12:50 AM 76.7°F24.8°C 75.8°F24.3°C 97% Calm Calm -- 29.95 in1014.2 mb 0.02 in0.5 mm 0.00 in0.0 mm 0.03 in0.8 mm
12:45 AM 76.8°F24.9°C 75.9°F24.4°C 97% Calm Calm -- 29.95 in1014.2 mb 0.02 in0.5 mm 0.00 in0.0 mm 0.03 in0.8 mm
12:40 AM 76.8°F24.9°C 75.9°F24.4°C 97% Calm Calm -- 29.95 in1014.2 mb 0.02 in0.5 mm 0.00 in0.0 mm 0.03 in0.8 mm
12:35 AM 76.8°F24.9°C 75.9°F24.4°C 97% Calm Calm -- 29.96 in1014.6 mb 0.02 in0.5 mm 0.00 in0.0 mm 0.03 in0.8 mm
12:30 AM 76.9°F24.9°C 76.0°F24.4°C 97% Calm Calm -- 29.95 in1014.2 mb 0.02 in0.5 mm 0.00 in0.0 mm 0.03 in0.8 mm
12:25 AM 76.9°F24.9°C 76.0°F24.4°C 97% Calm Calm -- 29.96 in1014.6 mb 0.03 in0.8 mm 0.00 in0.0 mm 0.03 in0.8 mm
12:20 AM 77.0°F25.0°C 76.1°F24.5°C 97% Calm Calm -- 29.96 in1014.6 mb 0.03 in0.8 mm 0.00 in0.0 mm 0.03 in0.8 mm
12:15 AM 76.9°F24.9°C 76.0°F24.4°C 97% Calm Calm 1.0 mph1.6 kmh 29.96 in1014.6 mb 0.03 in0.8 mm 0.12 in3.0 mm 0.03 in0.8 mm
12:10 AM 76.9°F24.9°C 76.0°F24.4°C 97% Calm Calm -- 29.96 in1014.6 mb 0.02 in0.5 mm 0.00 in0.0 mm 0.02 in0.5 mm
12:05 AM 76.8°F24.9°C 75.9°F24.4°C 97% Calm Calm 1.0 mph1.6 kmh 29.96 in1014.6 mb 0.02 in0.5 mm 0.00 in0.0 mm 0.02 in0.5 mm
12:00 AM 76.7°F24.8°C 75.8°F24.3°C 97% Calm Calm -- 29.96 in1014.6 mb 0.02 in0.5 mm 0.00 in0.0 mm 0.02 in0.5 mm